createdAt,value
2023-03-26T00:02:01.904Z,81.03
2023-03-26T00:05:05.365Z,80.56
2023-03-26T00:08:11.463Z,82.10
2023-03-26T00:11:16.068Z,78.71
2023-03-26T00:14:18.794Z,78.00
2023-03-26T00:17:21.566Z,77.92
2023-03-26T00:20:24.340Z,79.13
2023-03-26T00:23:28.431Z,77.93
2023-03-26T00:26:32.067Z,78.45
2023-03-26T00:29:36.100Z,76.93
2023-03-26T00:32:38.899Z,77.01
2023-03-26T00:35:43.305Z,77.28
2023-03-26T00:38:48.010Z,77.89
2023-03-26T00:41:54.553Z,77.60
2023-03-26T00:45:00.642Z,78.10
2023-03-26T00:48:04.257Z,78.36
2023-03-26T00:51:08.848Z,78.03
2023-03-26T00:54:11.968Z,78.70
2023-03-26T00:57:22.602Z,77.81
2023-03-26T01:00:36.517Z,78.09
2023-03-26T01:03:39.641Z,77.67
2023-03-26T01:06:43.420Z,78.62
2023-03-26T01:09:50.487Z,76.75
2023-03-26T01:12:53.127Z,77.93
2023-03-26T01:15:57.926Z,79.05
2023-03-26T01:19:01.036Z,77.99
2023-03-26T01:22:05.367Z,78.63
2023-03-26T01:25:09.664Z,80.30
2023-03-26T01:28:12.997Z,78.64
2023-03-26T01:31:29.900Z,78.08
2023-03-26T01:34:54.282Z,75.74
2023-03-26T01:38:11.908Z,76.03
2023-03-26T01:41:24.552Z,75.16
2023-03-26T01:44:41.600Z,76.51
2023-03-26T01:47:45.733Z,78.93
2023-03-26T01:50:51.387Z,79.59
2023-03-26T01:53:55.414Z,79.74
2023-03-26T01:57:35.423Z,80.85
2023-03-26T02:00:45.970Z,79.78
2023-03-26T02:03:59.131Z,80.87
2023-03-26T02:07:18.045Z,76.09
2023-03-26T02:10:27.016Z,76.96
2023-03-26T02:13:30.399Z,74.50
2023-03-26T02:16:33.346Z,77.03
2023-03-26T02:19:37.475Z,76.79
2023-03-26T02:22:41.827Z,78.19
2023-03-26T02:25:46.506Z,77.56
2023-03-26T02:28:49.574Z,80.58
2023-03-26T02:31:52.297Z,79.88
2023-03-26T02:34:54.912Z,81.13
2023-03-26T02:37:57.506Z,80.45
2023-03-26T02:41:01.253Z,80.37
2023-03-26T02:44:13.525Z,81.75
2023-03-26T02:47:39.321Z,81.66
2023-03-26T02:51:06.793Z,81.21
2023-03-26T02:54:28.192Z,82.36
2023-03-26T02:57:38.290Z,83.08
2023-03-26T03:00:56.761Z,82.73
2023-03-26T03:04:08.418Z,83.22
2023-03-26T03:07:14.572Z,83.68
2023-03-26T03:10:21.940Z,84.27
2023-03-26T03:13:47.941Z,83.50
2023-03-26T03:16:57.947Z,84.06
2023-03-26T03:20:01.058Z,84.22
2023-03-26T03:23:04.062Z,84.53
2023-03-26T03:26:14.396Z,84.38
2023-03-26T03:29:18.842Z,84.42
2023-03-26T03:32:23.027Z,83.41
2023-03-26T03:35:30.179Z,82.57
2023-03-26T03:38:35.019Z,84.08
2023-03-26T03:41:37.633Z,83.88
2023-03-26T03:44:43.072Z,82.74
2023-03-26T03:47:59.083Z,83.37
2023-03-26T03:51:21.075Z,83.87
2023-03-26T03:54:34.643Z,84.25
2023-03-26T03:57:54.867Z,84.40
2023-03-26T04:01:01.048Z,83.66
2023-03-26T04:04:35.754Z,83.10
2023-03-26T04:07:40.059Z,81.74
2023-03-26T04:10:44.136Z,81.13
2023-03-26T04:13:52.398Z,79.89
2023-03-26T04:17:02.357Z,80.21
2023-03-26T04:20:08.864Z,79.63
2023-03-26T04:23:14.266Z,78.55
2023-03-26T04:26:20.525Z,79.10
2023-03-26T04:29:45.790Z,78.89
2023-03-26T04:32:54.233Z,79.11
2023-03-26T04:36:01.712Z,79.29
2023-03-26T04:39:07.059Z,79.76
2023-03-26T04:42:48.055Z,78.81
2023-03-26T04:46:03.366Z,79.02
2023-03-26T04:49:10.304Z,80.42
2023-03-26T04:52:14.597Z,80.65
2023-03-26T04:55:53.567Z,78.90
2023-03-26T04:59:19.531Z,76.99
2023-03-26T05:02:22.165Z,74.31
2023-03-26T05:05:31.350Z,74.72
2023-03-26T05:08:35.385Z,73.33
2023-03-26T05:11:38.293Z,70.52
2023-03-26T05:14:41.302Z,68.91
2023-03-26T05:17:51.445Z,67.07
2023-03-26T05:21:03.234Z,65.19
2023-03-26T05:24:07.769Z,62.72
2023-03-26T05:27:17.164Z,59.84
2023-03-26T05:30:22.443Z,58.26
2023-03-26T05:33:30.429Z,57.64
2023-03-26T05:36:40.870Z,56.01
2023-03-26T05:40:04.344Z,54.30
2023-03-26T05:43:33.802Z,53.62
2023-03-26T05:46:42.858Z,52.47
2023-03-26T05:49:49.440Z,51.63
2023-03-26T05:52:52.545Z,50.92
2023-03-26T05:56:13.476Z,49.18
2023-03-26T05:59:35.387Z,47.32
2023-03-26T06:02:57.411Z,46.06
2023-03-26T06:06:20.888Z,45.92
2023-03-26T06:09:31.956Z,46.23
2023-03-26T06:12:35.019Z,46.59
2023-03-26T06:15:37.887Z,45.05
2023-03-26T06:19:03.682Z,44.74
2023-03-26T06:22:22.902Z,43.82
2023-03-26T06:25:51.916Z,42.85
2023-03-26T06:29:12.478Z,42.36
2023-03-26T06:32:28.191Z,42.08
2023-03-26T06:35:40.069Z,41.85
2023-03-26T06:38:42.894Z,42.51
2023-03-26T06:41:46.521Z,41.91
2023-03-26T06:44:59.472Z,40.80
2023-03-26T06:48:11.147Z,43.51
2023-03-26T06:51:41.265Z,42.69
2023-03-26T06:54:43.837Z,40.70
2023-03-26T06:58:02.336Z,41.48
2023-03-26T07:01:14.137Z,41.75
2023-03-26T07:04:35.491Z,41.82
2023-03-26T07:07:56.861Z,42.61
2023-03-26T07:11:32.295Z,40.67
2023-03-26T07:14:53.395Z,41.84
2023-03-26T07:18:18.561Z,39.35
2023-03-26T07:21:22.775Z,37.68
2023-03-26T07:24:26.070Z,38.52
2023-03-26T07:27:59.836Z,37.85
2023-03-26T07:31:37.278Z,38.02
2023-03-26T07:35:15.541Z,37.29
2023-03-26T07:39:08.952Z,38.23
2023-03-26T07:42:55.975Z,37.50
2023-03-26T07:46:18.985Z,36.38
2023-03-26T07:49:30.384Z,36.63
2023-03-26T07:52:58.355Z,36.08
2023-03-26T07:56:20.602Z,36.76
2023-03-26T08:00:12.296Z,35.63
2023-03-26T08:03:42.390Z,34.44
2023-03-26T08:06:54.076Z,34.03
2023-03-26T08:10:23.724Z,35.12
2023-03-26T08:13:34.749Z,32.20
2023-03-26T08:16:46.008Z,33.72
2023-03-26T08:19:49.278Z,33.56
2023-03-26T08:23:02.249Z,35.49
2023-03-26T08:26:25.808Z,33.73
2023-03-26T08:29:41.301Z,34.84
2023-03-26T08:32:49.962Z,33.22
2023-03-26T08:35:52.623Z,33.50
2023-03-26T08:38:57.503Z,34.76
2023-03-26T08:42:32.038Z,35.33
2023-03-26T08:46:13.424Z,35.58
2023-03-26T08:49:48.194Z,34.03
2023-03-26T08:53:23.296Z,34.24
2023-03-26T08:57:06.034Z,32.85
2023-03-26T09:00:52.538Z,32.61
2023-03-26T09:04:40.150Z,32.99
2023-03-26T09:08:16.008Z,34.42
2023-03-26T09:11:56.010Z,32.50
2023-03-26T09:15:13.618Z,33.69
2023-03-26T09:18:28.122Z,31.74
2023-03-26T09:21:48.822Z,31.60
2023-03-26T09:25:16.331Z,32.85
2023-03-26T09:28:41.890Z,31.15
2023-03-26T09:32:09.512Z,31.88
2023-03-26T09:35:15.537Z,30.60
2023-03-26T09:38:43.466Z,30.80
2023-03-26T09:42:22.271Z,33.96
2023-03-26T09:45:39.930Z,35.80
2023-03-26T09:48:42.625Z,38.25
2023-03-26T09:52:34.454Z,38.26
2023-03-26T09:55:45.412Z,38.50
2023-03-26T09:59:29.253Z,38.30
2023-03-26T10:02:48.007Z,36.69
2023-03-26T10:05:57.582Z,38.36
2023-03-26T10:09:08.620Z,40.45
2023-03-26T10:12:35.276Z,39.40
2023-03-26T10:15:43.624Z,39.62
2023-03-26T10:18:58.470Z,36.78
2023-03-26T10:22:17.814Z,32.39
2023-03-26T10:25:23.489Z,29.40
2023-03-26T10:28:45.446Z,28.11
2023-03-26T10:31:57.739Z,27.83
2023-03-26T10:35:19.088Z,26.24
2023-03-26T10:39:03.684Z,27.90
2023-03-26T10:42:40.856Z,28.48
2023-03-26T10:46:04.963Z,31.48
2023-03-26T10:49:41.155Z,33.34
2023-03-26T10:53:03.297Z,29.77
2023-03-26T10:56:32.639Z,31.05
2023-03-26T10:59:35.355Z,29.31
2023-03-26T11:02:44.938Z,30.15
2023-03-26T11:06:25.600Z,34.32
2023-03-26T11:09:42.223Z,34.81
2023-03-26T11:13:23.250Z,35.60
2023-03-26T11:16:31.011Z,35.85
2023-03-26T11:19:53.210Z,36.38
2023-03-26T11:23:01.976Z,36.50
2023-03-26T11:26:10.312Z,36.93
2023-03-26T11:29:31.098Z,37.48
2023-03-26T11:32:43.914Z,37.58
2023-03-26T11:35:53.216Z,37.55
2023-03-26T11:38:59.723Z,38.20
2023-03-26T11:42:11.404Z,37.79
2023-03-26T11:45:24.288Z,39.68
2023-03-26T11:48:41.982Z,38.82
2023-03-26T11:51:47.955Z,38.89
2023-03-26T11:54:51.102Z,39.28
2023-03-26T11:57:58.559Z,38.79
2023-03-26T12:01:05.583Z,39.93
2023-03-26T12:04:15.863Z,40.91
2023-03-26T12:07:40.263Z,42.21
2023-03-26T12:10:43.437Z,40.88
2023-03-26T12:13:59.647Z,39.57
2023-03-26T12:17:12.598Z,41.10
2023-03-26T12:20:24.938Z,40.02
2023-03-26T12:23:56.483Z,41.21
2023-03-26T12:27:21.030Z,41.27
2023-03-26T12:30:33.992Z,40.45
2023-03-26T12:33:39.023Z,40.64
2023-03-26T12:36:49.462Z,40.07
2023-03-26T12:40:12.967Z,40.52
2023-03-26T12:44:53.907Z,39.78
2023-03-26T12:47:58.246Z,39.57
2023-03-26T12:51:13.151Z,38.09
2023-03-26T12:54:52.943Z,38.42
2023-03-26T12:58:13.729Z,38.08
2023-03-26T13:01:26.371Z,39.04
2023-03-26T13:05:06.501Z,38.24
2023-03-26T13:08:40.623Z,34.57
2023-03-26T13:11:58.569Z,34.11
2023-03-26T13:15:19.564Z,36.40
2023-03-26T13:18:27.900Z,35.31
2023-03-26T13:21:39.314Z,36.81
2023-03-26T13:24:46.415Z,35.86
2023-03-26T13:28:10.906Z,31.54
2023-03-26T13:31:23.298Z,32.44
2023-03-26T13:34:33.574Z,31.50
2023-03-26T13:37:45.531Z,33.03
2023-03-26T13:41:03.342Z,35.38
2023-03-26T13:44:42.422Z,36.86
2023-03-26T13:47:50.395Z,35.29
2023-03-26T13:51:14.798Z,34.45
2023-03-26T13:54:40.547Z,33.25
2023-03-26T13:57:48.862Z,30.07
2023-03-26T14:01:17.001Z,33.23
2023-03-26T14:04:58.492Z,34.98
2023-03-26T14:08:27.215Z,32.52
2023-03-26T14:12:22.080Z,32.78
2023-03-26T14:15:41.345Z,33.57
2023-03-26T14:18:56.652Z,35.25
2023-03-26T14:22:26.449Z,33.69
2023-03-26T14:25:50.797Z,34.01
2023-03-26T14:29:13.838Z,36.10
2023-03-26T14:32:50.800Z,35.88
2023-03-26T14:36:11.952Z,36.41
2023-03-26T14:39:23.666Z,36.06
2023-03-26T14:42:48.024Z,36.85
2023-03-26T14:46:05.685Z,38.46
2023-03-26T14:49:20.141Z,37.99
2023-03-26T14:52:39.519Z,37.90
2023-03-26T14:55:54.172Z,37.92
2023-03-26T14:59:47.591Z,37.18
2023-03-26T15:03:11.593Z,38.34
2023-03-26T15:06:35.052Z,36.89
2023-03-26T15:10:05.806Z,35.90
2023-03-26T15:13:30.053Z,34.49
2023-03-26T15:16:32.875Z,35.16
2023-03-26T15:20:10.855Z,36.98
2023-03-26T15:23:33.780Z,38.60
2023-03-26T15:26:58.799Z,39.80
2023-03-26T15:30:13.829Z,39.14
2023-03-26T15:33:50.867Z,39.95
2023-03-26T15:37:22.519Z,41.31
2023-03-26T15:40:30.105Z,41.98
2023-03-26T15:44:23.127Z,43.06
2023-03-26T15:47:58.230Z,45.57
2023-03-26T15:51:46.111Z,43.86
2023-03-26T15:54:56.241Z,45.75
2023-03-26T15:58:14.268Z,45.81
2023-03-26T16:01:38.148Z,45.14
2023-03-26T16:05:19.411Z,44.72
2023-03-26T16:08:38.699Z,46.09
2023-03-26T16:12:03.141Z,46.23
2023-03-26T16:15:06.103Z,46.82
2023-03-26T16:18:10.423Z,46.22
2023-03-26T16:21:32.082Z,46.13
2023-03-26T16:24:40.345Z,47.27
2023-03-26T16:27:44.638Z,46.61
2023-03-26T16:31:23.569Z,49.17
2023-03-26T16:34:47.884Z,49.44
2023-03-26T16:38:05.867Z,49.38
2023-03-26T16:41:50.157Z,50.80
2023-03-26T16:45:21.791Z,51.26
2023-03-26T16:48:49.667Z,52.65
2023-03-26T16:52:27.810Z,53.99
2023-03-26T16:56:08.862Z,54.86
2023-03-26T16:59:40.042Z,56.00
2023-03-26T17:03:08.050Z,58.40
2023-03-26T17:06:47.914Z,57.75
2023-03-26T17:10:03.489Z,57.88
2023-03-26T17:13:16.745Z,58.72
2023-03-26T17:16:23.637Z,59.17
2023-03-26T17:19:58.297Z,58.17
2023-03-26T17:23:22.839Z,58.48
2023-03-26T17:26:31.262Z,58.91
2023-03-26T17:30:04.049Z,57.64
2023-03-26T17:33:38.717Z,55.80
2023-03-26T17:36:43.176Z,56.71
2023-03-26T17:39:46.966Z,57.58
2023-03-26T17:43:08.421Z,55.83
2023-03-26T17:46:25.752Z,57.44
2023-03-26T17:49:33.377Z,58.34
2023-03-26T17:52:49.665Z,59.16
2023-03-26T17:55:53.709Z,61.54
2023-03-26T17:59:11.250Z,62.45
2023-03-26T18:02:21.902Z,61.20
2023-03-26T18:05:28.151Z,62.39
2023-03-26T18:08:46.448Z,62.08
2023-03-26T18:12:13.551Z,60.48
2023-03-26T18:15:54.964Z,62.80
2023-03-26T18:19:01.674Z,61.58
2023-03-26T18:22:07.435Z,62.12
2023-03-26T18:25:22.002Z,61.41
2023-03-26T18:28:34.923Z,61.81
2023-03-26T18:31:42.109Z,60.55
2023-03-26T18:34:53.824Z,56.52
2023-03-26T18:38:00.996Z,58.73
2023-03-26T18:41:08.066Z,56.88
2023-03-26T18:44:17.350Z,58.94
2023-03-26T18:47:21.114Z,56.76
2023-03-26T18:50:41.329Z,61.53
2023-03-26T18:53:54.843Z,61.60
2023-03-26T18:56:58.979Z,58.01
2023-03-26T19:00:23.632Z,59.80
2023-03-26T19:03:28.615Z,59.75
2023-03-26T19:06:38.325Z,61.84
2023-03-26T19:09:43.369Z,60.84
2023-03-26T19:12:46.578Z,60.96
2023-03-26T19:15:52.371Z,59.61
2023-03-26T19:18:59.161Z,60.44
2023-03-26T19:22:04.717Z,59.41
2023-03-26T19:25:17.761Z,60.52
2023-03-26T19:28:31.174Z,59.18
2023-03-26T19:31:37.140Z,59.31
2023-03-26T19:34:40.190Z,59.55
2023-03-26T19:37:51.380Z,59.93
2023-03-26T19:40:58.682Z,59.17
2023-03-26T19:44:12.339Z,59.74
2023-03-26T19:47:19.928Z,59.93
2023-03-26T19:50:28.899Z,61.03
2023-03-26T19:53:37.414Z,62.30
2023-03-26T19:56:43.696Z,62.38
2023-03-26T19:59:50.965Z,63.24
2023-03-26T20:02:54.150Z,63.66
2023-03-26T20:05:57.535Z,62.79
2023-03-26T20:09:01.307Z,62.97
2023-03-26T20:12:04.470Z,63.18
2023-03-26T20:15:28.829Z,61.83
2023-03-26T20:18:31.787Z,61.44
2023-03-26T20:21:41.212Z,61.28
2023-03-26T20:24:47.271Z,59.29
2023-03-26T20:27:53.106Z,57.80
2023-03-26T20:30:57.782Z,56.30
2023-03-26T20:34:00.897Z,54.83
2023-03-26T20:37:04.163Z,55.24
2023-03-26T20:40:08.851Z,54.93
2023-03-26T20:43:18.529Z,55.72
2023-03-26T20:46:31.051Z,56.66
2023-03-26T20:49:35.070Z,58.27
2023-03-26T20:52:37.849Z,58.37
2023-03-26T20:55:44.014Z,57.43
2023-03-26T20:59:03.616Z,57.00
2023-03-26T21:02:12.070Z,57.25
2023-03-26T21:05:15.034Z,57.54
2023-03-26T21:08:19.570Z,57.26
2023-03-26T21:11:42.443Z,57.40
2023-03-26T21:14:45.247Z,57.03
2023-03-26T21:17:49.239Z,58.70
2023-03-26T21:21:26.895Z,58.44
2023-03-26T21:24:30.432Z,59.10
2023-03-26T21:27:33.885Z,60.64
2023-03-26T21:30:37.644Z,57.96
2023-03-26T21:33:41.089Z,58.05
2023-03-26T21:36:43.998Z,59.55
2023-03-26T21:39:46.947Z,58.20
2023-03-26T21:42:51.684Z,58.79
2023-03-26T21:45:54.936Z,58.32
2023-03-26T21:48:57.941Z,58.57
2023-03-26T21:52:01.040Z,58.47
2023-03-26T21:55:05.961Z,58.62
2023-03-26T21:58:14.368Z,58.54
2023-03-26T22:01:25.315Z,59.00
2023-03-26T22:04:41.872Z,60.48
2023-03-26T22:07:47.186Z,59.44
2023-03-26T22:10:50.528Z,59.23
2023-03-26T22:13:53.483Z,59.74
2023-03-26T22:16:56.058Z,60.81
2023-03-26T22:19:58.644Z,60.47
2023-03-26T22:23:01.951Z,60.51
2023-03-26T22:26:06.020Z,61.22
2023-03-26T22:29:09.658Z,59.45
2023-03-26T22:32:12.293Z,60.13
2023-03-26T22:35:14.901Z,59.98
2023-03-26T22:38:17.986Z,60.16
2023-03-26T22:41:21.821Z,59.64
2023-03-26T22:44:24.468Z,59.48
2023-03-26T22:47:27.290Z,60.98
2023-03-26T22:50:30.201Z,60.29
2023-03-26T22:53:32.864Z,60.00
2023-03-26T22:56:36.401Z,58.01
2023-03-26T22:59:39.051Z,57.29
2023-03-26T23:02:42.335Z,57.30
2023-03-26T23:05:56.114Z,59.56
2023-03-26T23:08:59.048Z,59.48
2023-03-26T23:12:02.208Z,58.70
2023-03-26T23:15:06.188Z,59.00
2023-03-26T23:18:08.808Z,58.75
2023-03-26T23:21:16.387Z,59.19
2023-03-26T23:24:18.937Z,58.71
2023-03-26T23:27:22.890Z,57.13
2023-03-26T23:30:27.787Z,57.46
2023-03-26T23:33:35.296Z,58.42
2023-03-26T23:36:37.919Z,58.57
2023-03-26T23:39:40.530Z,59.07
2023-03-26T23:42:43.275Z,56.76
2023-03-26T23:45:49.178Z,57.81
2023-03-26T23:48:52.253Z,58.82
2023-03-26T23:51:54.982Z,56.91
2023-03-26T23:54:59.820Z,58.79
2023-03-26T23:58:03.462Z,59.41
